Bei Facebook empfehlenBei Twitter postenGoogle plusPinterest

Das Wetter im Erzgebirge am 05.09.2015

Wetter und Klima am 05.09.2015 Holzhau im Erzgebirge (630m ü.NN)
Letzte gemessene Temperatur und Uhrzeit der Messung23:45:00 Uhr8.50 °C
Temperatur (Maximum / Höchstwert) und Uhrzeit der Messung15:15:00 Uhr16.60 °C
Temperatur (Minimum / Tiefstwert) und Uhrzeit der Messung04:00:003.20 °C
Errechneter Absolutwert der Temperaturschwankungen zwischen Tmin und Tmax des Tages13.40 K
Errechnete Tagesmitteltemperatur9.37708 °C
Gesamt - Niederschlag des Tages (in flüssiger Form)5.70 Liter / m²
Luftdruck (Maximum / Höchstwert) und Zeitpunkt der Messung21:15:00 Uhr1011.10 hPa
Luftdruck (Minimum / Tiefstwert) und Zeitpunkt der Messung06:30:00 Uhr1008.90 hPa
Errechneter Absolutwert der Luftdruckschwankungen des Tages2.20 hPa
Höchste gemessene Windgeschwindigkeit und Uhrzeit der Messung14:00:00 Uhr12.60 km/h
Errechnete Windhäufigkeit in Relation zu den Messwerten des Tages25.00000 %
Niedrigste Windkühle (Windchill) und Zeitpunkt der Messung04:00:00 Uhr3.20 °C
Taupunkt (Maximum / Höchstwert) und Uhrzeit der Messung15:00:00 Uhr10.60 °C
Taupunkt (Minimum / Tiefstwert) und Uhrzeit der Messung04:00:001.70 °C
Anzahl der automatisch eingelesenen Messwerte 96

Detaillierte Wetter- und Klima- Messwerte für den 05.09.2015 in Holzhau im Erzgebirge (630m ü.NN)
ZeitTemperaturLuftdruckRel. LuftfeuchteWindWindrichtungWindchillTaupunktNiederschlag l/m²
23:45:008.50 °C1010.40 hPa91.00 %7.10 °C5.70
23:30:008.70 °C1010.50 hPa91.00 %7.30 °C5.18
23:15:008.80 °C1010.50 hPa90.00 %7.30 °C4.67
23:00:008.90 °C1010.70 hPa90.00 %7.40 °C4.67
22:45:009.10 °C1010.60 hPa89.00 %7.40 °C4.67
22:30:009.20 °C1010.70 hPa89.00 %3.60 km/hWNW9.20 °C7.50 °C4.67
22:15:009.10 °C1010.60 hPa89.00 %7.40 °C4.15
22:00:009.00 °C1010.70 hPa88.00 %7.10 °C4.15
21:45:009.00 °C1010.90 hPa87.00 %7.00 °C4.15
21:30:009.00 °C1011.00 hPa87.00 %7.00 °C4.15
21:15:008.90 °C1011.10 hPa86.00 %6.70 °C3.63
21:00:008.90 °C1011.00 hPa85.00 %6.50 °C3.63
20:45:009.10 °C1010.80 hPa84.00 %6.50 °C3.11
20:30:009.30 °C1010.90 hPa82.00 %6.40 °C2.59
20:15:009.80 °C1010.30 hPa80.00 %6.50 °C1.04
20:00:0010.50 °C1010.40 hPa78.00 %6.80 °C1.04
19:45:0011.80 °C1010.10 hPa76.00 %3.24 km/hWNW11.80 °C7.70 °C 
19:30:0011.80 °C1009.90 hPa76.00 %7.70 °C 
19:15:0011.80 °C1010.30 hPa76.00 %7.70 °C 
19:00:0012.40 °C1010.20 hPa73.00 %7.70 °C 
18:45:0013.00 °C1010.10 hPa71.00 %7.90 °C 
18:30:0013.50 °C1010.30 hPa70.00 %5.04 km/hSW13.70 °C8.10 °C 
18:15:0014.20 °C1010.10 hPa68.00 %6.48 km/hSSW14.20 °C8.40 °C 
18:00:0014.80 °C1010.10 hPa68.00 %5.40 km/hWNW15.10 °C9.00 °C 
17:45:0014.90 °C1009.90 hPa68.00 %9.10 °C 
17:30:0015.40 °C1010.10 hPa69.00 %9.70 °C 
17:15:0015.30 °C1010.30 hPa71.00 %6.12 km/hWSW15.50 °C10.10 °C 
17:00:0014.50 °C1010.20 hPa70.00 %5.04 km/hW14.90 °C9.10 °C 
16:45:0014.40 °C1010.40 hPa71.00 %9.20 °C 
16:30:0014.40 °C1010.40 hPa72.00 %12.24 km/hWNW13.60 °C9.40 °C 
16:15:0013.70 °C1010.40 hPa72.00 %8.70 °C 
16:00:0013.50 °C1010.90 hPa70.00 %8.10 °C 
15:45:0014.40 °C1010.80 hPa67.00 %8.40 °C 
15:30:0015.90 °C1010.50 hPa66.00 %9.60 °C 
15:15:0016.60 °C1010.60 hPa66.00 %4.32 km/hW16.60 °C10.20 °C 
15:00:0016.30 °C1010.50 hPa69.00 %5.76 km/hWNW16.80 °C10.60 °C 
14:45:0015.50 °C1010.40 hPa71.00 %8.28 km/hWNW15.40 °C10.30 °C 
14:30:0014.60 °C1010.40 hPa74.00 %10.00 °C 
14:15:0014.20 °C1010.40 hPa72.00 %9.20 °C 
14:00:0014.30 °C1010.20 hPa74.00 %12.60 km/hWSW13.50 °C9.70 °C 
13:45:0014.40 °C1010.20 hPa76.00 %10.20 °C 
13:30:0014.20 °C1010.10 hPa79.00 %9.00 km/hWSW13.80 °C10.60 °C 
13:15:0012.70 °C1010.10 hPa80.00 %9.30 °C 
13:00:0012.10 °C1010.20 hPa80.00 %8.64 km/hSW11.40 °C8.80 °C 
12:45:0012.40 °C1010.40 hPa80.00 %4.32 km/hWNW12.40 °C9.10 °C 
12:30:0012.20 °C1010.30 hPa81.00 %9.00 °C 
12:15:0012.30 °C1010.20 hPa82.00 %3.96 km/hSW12.30 °C9.30 °C 
12:00:0011.40 °C1010.50 hPa83.00 %8.60 °C 
11:45:0011.40 °C1010.30 hPa83.00 %3.60 km/hSW11.40 °C8.60 °C 
11:30:0011.10 °C1010.30 hPa83.00 %8.30 °C 
11:15:0010.90 °C1010.30 hPa83.00 %8.10 °C 
11:00:0010.90 °C1010.30 hPa83.00 %4.68 km/hSSW10.90 °C8.10 °C 
10:45:0010.90 °C1010.00 hPa83.00 %3.24 km/hW10.90 °C8.10 °C 
10:30:0011.10 °C1010.00 hPa83.00 %8.30 °C 
10:15:0011.10 °C1009.90 hPa83.00 %5.04 km/hNNW11.00 °C8.30 °C 
10:00:0011.00 °C1009.80 hPa83.00 %8.20 °C 
09:45:0011.10 °C1009.80 hPa84.00 %9.72 km/hW10.00 °C8.50 °C 
09:30:0010.90 °C1009.80 hPa85.00 %3.96 km/hWNW10.90 °C8.50 °C 
09:15:0010.50 °C1009.70 hPa85.00 %4.32 km/hWSW10.50 °C8.10 °C 
09:00:0010.30 °C1009.60 hPa87.00 %8.20 °C 
08:45:009.90 °C1009.60 hPa88.00 %8.00 °C 
08:30:009.40 °C1009.60 hPa90.00 %7.80 °C 
08:15:008.60 °C1009.60 hPa91.00 %7.20 °C 
08:00:007.90 °C1009.80 hPa92.00 %6.70 °C 
07:45:007.10 °C1009.50 hPa92.00 %5.90 °C 
07:30:005.60 °C1009.60 hPa91.00 %4.20 °C 
07:15:004.80 °C1009.50 hPa91.00 %3.50 °C 
07:00:004.40 °C1009.50 hPa91.00 %3.10 °C 
06:45:004.10 °C1009.20 hPa91.00 %2.80 °C 
06:30:003.80 °C1008.90 hPa90.00 %2.30 °C 
06:15:004.10 °C1009.40 hPa90.00 %2.60 °C 
06:00:004.70 °C1009.50 hPa90.00 %3.20 °C 
05:45:005.50 °C1009.60 hPa91.00 %4.20 °C 
05:30:005.80 °C1009.70 hPa91.00 %4.40 °C 
05:15:005.80 °C1009.60 hPa91.00 %4.32 km/hSSW5.80 °C4.40 °C 
05:00:005.30 °C1009.50 hPa91.00 %4.00 °C 
04:45:003.90 °C1009.60 hPa91.00 %2.60 °C 
04:30:003.40 °C1009.80 hPa91.00 %2.10 °C 
04:15:003.30 °C1009.90 hPa90.00 %1.80 °C 
04:00:003.20 °C1009.80 hPa90.00 %1.70 °C 
03:45:003.30 °C1009.90 hPa90.00 %1.80 °C 
03:30:003.30 °C1010.10 hPa90.00 %1.80 °C 
03:15:003.30 °C1010.20 hPa90.00 %1.80 °C 
03:00:003.30 °C1010.40 hPa89.00 %1.70 °C 
02:45:003.60 °C1010.40 hPa89.00 %2.00 °C 
02:30:003.80 °C1010.50 hPa89.00 %2.20 °C 
02:15:003.90 °C1010.50 hPa89.00 %2.30 °C 
02:00:004.30 °C1010.80 hPa89.00 %2.70 °C 
01:45:004.60 °C1010.90 hPa89.00 %2.90 °C 
01:30:004.80 °C1010.90 hPa89.00 %3.10 °C 
01:15:004.90 °C1010.80 hPa88.00 %3.10 °C 
01:00:005.00 °C1010.80 hPa88.00 %3.20 °C 
00:45:005.10 °C1011.10 hPa88.00 %3.30 °C 
00:30:005.40 °C1011.10 hPa88.00 %3.60 °C 
00:15:005.50 °C1011.00 hPa87.00 %3.50 °C 
00:00:005.60 °C1010.90 hPa87.00 %3.60 °C 

Permanenter Link zu dieser Seite: Wetter im Erzgebirge am 05.09.2015
Performance-Info: Die Erstellung der Seite / Statistik(en) / Tabelle(n) erforderte 5 Datenbankserver-Abfrage(n) und dauerte 97 Millisekunden. (Dieser Messwert ist von der Gesamt-Auslastung des Servers abhängig.)
Erzgebirge - Wetter | Erzgebirge - Wetter (Mobilgeräte) | Komplette Klimadatenbank